Hai Hua — XUDB9 — position and weather

sailwx.info

Track history (hours):
 
Tides and Currents Weather Stations Pressure Air Temp Water Temp Dewpoint Dewpoint Depression Visibility Wind Speed Wind Dir Waves Ship Positions

Hai Hua

Last reported at 2016-Jan-09 10:33 UTC. Time now 2016-Feb-08 06:12 UTC.
Position N 35°11' E 139°45'.
Warning: this ship's position is 29 days out of date.

Length 69 m; draft 5.1 m.

Type: Cargo ship. MMSI: 515171000.

Date/timePositionNaut miles runAvg speedWind from/ knotsBaromVisibWave heightAir tempDewpointWater temp
2016-Jan-09 10:33N 35°11' E 139°45'9 9.2
2016-Jan-09 09:34N 35°20' E 139°43'9 8.8
2016-Jan-09 08:34N 35°27' E 139°48'9 9.4
2016-Jan-09 07:34N 35°34' E 139°56'7 7.0
2016-Jan-09 06:32N 35°41' E 139°59'0 0.0
2016-Jan-09 05:22N 35°41' E 139°59'0 0.0
2016-Jan-09 04:31N 35°41' E 139°59'0 0.0
2016-Jan-09 03:28N 35°41' E 139°59'0 0.0
2016-Jan-09 02:28N 35°41' E 139°59'0 0.0
2016-Jan-09 01:16N 35°41' E 139°59'0 0.0
2016-Jan-09 00:28N 35°41' E 139°59'0 0.0
2016-Jan-08 23:22N 35°41' E 139°59'0 0.0
2016-Jan-08 22:28N 35°41' E 139°59'0 0.0
2016-Jan-08 21:28N 35°41' E 139°59'0 0.0
2016-Jan-08 20:28N 35°41' E 139°59'0 0.0
2016-Jan-08 19:28N 35°41' E 139°59'0 0.0
2016-Jan-08 18:22N 35°41' E 139°59'0 0.0
2016-Jan-08 17:16N 35°41' E 139°59'0 0.0
2016-Jan-08 16:28N 35°41' E 139°59'0 0.0
2016-Jan-08 15:28N 35°41' E 139°59'0 0.0
2016-Jan-08 14:28N 35°41' E 139°59'0 0.0
2016-Jan-08 13:28N 35°41' E 139°59'0 0.0
2016-Jan-08 12:28N 35°41' E 139°59'0 0.0
2016-Jan-08 11:28N 35°41' E 139°59'0 0.0
2016-Jan-08 10:22N 35°41' E 139°59'0 0.0
2016-Jan-08 09:10N 35°41' E 139°59'0 0.0
2016-Jan-08 08:28N 35°41' E 139°59'0 0.0
2016-Jan-08 07:28N 35°41' E 139°59'0 0.0
2016-Jan-08 06:22N 35°41' E 139°59'0 0.0
2016-Jan-08 05:16N 35°41' E 139°59'0 0.0
2016-Jan-08 04:28N 35°41' E 139°59'0 0.0
2016-Jan-08 03:31N 35°41' E 139°59'0 0.0
2016-Jan-08 02:28N 35°41' E 139°59'0 0.0
2016-Jan-08 01:28N 35°41' E 139°59'0 0.0
2016-Jan-08 00:28N 35°41' E 139°59'0 0.0
2016-Jan-07 23:28N 35°41' E 139°59'0 0.0
2016-Jan-07 22:28N 35°41' E 139°59'0 0.0
2016-Jan-07 21:28N 35°41' E 139°59'0 0.0
2016-Jan-07 20:28N 35°41' E 139°59'0 0.0
2016-Jan-07 19:22N 35°41' E 139°59'0 0.0
2016-Jan-07 18:28N 35°41' E 139°59'0 0.0
2016-Jan-07 17:28N 35°41' E 139°59'0 0.0
2016-Jan-07 16:22N 35°41' E 139°59'0 0.0
2016-Jan-07 15:22N 35°41' E 139°59'0 0.0
2016-Jan-07 14:22N 35°41' E 139°59'0 0.0
2016-Jan-07 13:22N 35°41' E 139°59'0 0.0
2016-Jan-07 12:28N 35°41' E 139°59'0 0.0
2016-Jan-07 11:28N 35°41' E 139°59'0 0.0
2016-Jan-07 10:28N 35°41' E 139°59'0 0.0
2016-Jan-07 09:22N 35°41' E 139°59'0 0.0
2016-Jan-07 08:28N 35°41' E 139°59'0 0.0
2016-Jan-07 07:28N 35°41' E 139°59'0 0.0
2016-Jan-07 06:28N 35°41' E 139°59'0 0.2
2016-Jan-07 05:29N 35°41' E 139°58'0 0.0
2016-Jan-07 04:29N 35°41' E 139°58'0 0.0
2016-Jan-07 03:29N 35°41' E 139°58'0 0.0
2016-Jan-07 02:29N 35°41' E 139°58'0 0.0
2016-Jan-07 01:23N 35°41' E 139°58'0 0.0
2016-Jan-07 00:29N 35°41' E 139°58'0 0.0
2016-Jan-06 23:29N 35°41' E 139°58'0 0.0
2016-Jan-06 22:29N 35°41' E 139°58'0 0.0
2016-Jan-06 21:29N 35°41' E 139°58'4 4.8
2016-Jan-06 20:33N 35°36' E 139°58'0 0.3
2016-Jan-06 19:24N 35°36' E 139°58'0 0.0
2016-Jan-06 18:18N 35°36' E 139°58'0 0.0
2016-Jan-06 17:30N 35°36' E 139°58'0 0.0
2016-Jan-06 16:30N 35°36' E 139°58'0 0.0
2016-Jan-06 15:18N 35°36' E 139°58'0 0.0
2016-Jan-06 14:12N 35°36' E 139°58'0 0.0
2016-Jan-06 13:30N 35°36' E 139°58'0 0.0
2016-Jan-06 12:30N 35°36' E 139°58'0 0.0
2016-Jan-06 11:30N 35°36' E 139°58'0 0.0
2016-Jan-06 10:18N 35°36' E 139°58'0 0.1
2016-Jan-06 09:24N 35°36' E 139°58'0 0.0
2016-Jan-06 08:30N 35°36' E 139°58'0 0.0
2016-Jan-06 05:30N 35°36' E 139°58'0 0.0
2016-Jan-06 04:18N 35°36' E 139°58'0 0.0
2016-Jan-06 03:30N 35°36' E 139°58'0 0.0
2016-Jan-06 02:30N 35°36' E 139°58'0 0.0
2016-Jan-06 01:30N 35°36' E 139°58'0 0.0
2016-Jan-06 00:24N 35°36' E 139°58'0 0.0
2016-Jan-05 23:18N 35°36' E 139°58'0 0.0
2016-Jan-05 22:30N 35°36' E 139°58'0 0.0
2016-Jan-05 21:30N 35°36' E 139°58'0 0.0
2016-Jan-05 20:18N 35°36' E 139°58'0 0.0
2016-Jan-05 19:30N 35°36' E 139°58'0 0.0
2016-Jan-05 18:30N 35°36' E 139°58'0 0.0
2016-Jan-05 17:30N 35°36' E 139°58'0 0.0
2016-Jan-05 16:30N 35°36' E 139°58'0 0.0
2016-Jan-05 15:30N 35°36' E 139°58'0 0.0
2016-Jan-05 14:30N 35°36' E 139°58'0 0.0
2016-Jan-05 13:30N 35°36' E 139°58'0 0.0
2016-Jan-05 12:30N 35°36' E 139°58'0 0.0
2016-Jan-05 11:30N 35°36' E 139°58'0 0.0
2016-Jan-05 10:30N 35°36' E 139°58'0 0.0
2016-Jan-05 09:30N 35°36' E 139°58'0 0.0
2016-Jan-05 08:30N 35°36' E 139°58'0 0.0
2016-Jan-05 07:30N 35°36' E 139°58'0 0.0
2016-Jan-05 06:18N 35°36' E 139°58'0 0.1
2016-Jan-05 05:30N 35°36' E 139°58'0 0.1
2016-Jan-05 04:30N 35°36' E 139°58'0 0.0
2016-Jan-05 03:30N 35°36' E 139°58'0 0.0
2016-Jan-05 02:30N 35°36' E 139°58'0 0.0
2016-Jan-05 01:18N 35°36' E 139°58'0 0.0
2016-Jan-05 00:30N 35°36' E 139°58'0 0.0
2016-Jan-04 23:24N 35°36' E 139°58'0 0.0
2016-Jan-04 22:30N 35°36' E 139°58'0 0.0
2016-Jan-04 21:30N 35°36' E 139°58'0 0.0
2016-Jan-04 20:24N 35°36' E 139°58'0 0.0
2016-Jan-04 19:24N 35°36' E 139°58'0 0.0
2016-Jan-04 18:30N 35°36' E 139°58'0 0.0
2016-Jan-04 17:30N 35°36' E 139°58'0 0.0
2016-Jan-04 16:30N 35°36' E 139°58'0 0.0
2016-Jan-04 15:24N 35°36' E 139°58'0 0.0
2016-Jan-04 14:24N 35°36' E 139°58'0 0.0
2016-Jan-04 13:24N 35°36' E 139°58'0 0.1
2016-Jan-04 12:30N 35°36' E 139°58'7 7.7
2016-Jan-04 11:34N 35°30' E 139°54'10 9.8
2016-Jan-04 10:34N 35°22' E 139°45'9 8.8
2016-Jan-04 09:33N 35°14' E 139°47'  
Track history (hours):
 
Tides and Currents Weather Stations Pressure Air Temp Water Temp Dewpoint Dewpoint Depression Visibility Wind Speed Wind Dir Waves Ship Positions

Hai Hua

Last reported at 2016-Jan-09 10:33 UTC. Time now 2016-Feb-08 06:12 UTC.
Position N 35°11' E 139°45'.
Warning: this ship's position is 29 days out of date.

Length 69 m; draft 5.1 m.

Type: Cargo ship. MMSI: 515171000.

Date/timePositionNaut miles runAvg speedWind from/ knotsBaromVisibWave heightAir tempDewpointWater temp
2016-Jan-09 10:33N 35°11' E 139°45'9 9.2
2016-Jan-09 09:34N 35°20' E 139°43'9 8.8
2016-Jan-09 08:34N 35°27' E 139°48'9 9.4
2016-Jan-09 07:34N 35°34' E 139°56'7 7.0
2016-Jan-09 06:32N 35°41' E 139°59'0 0.0
2016-Jan-09 05:22N 35°41' E 139°59'0 0.0
2016-Jan-09 04:31N 35°41' E 139°59'0 0.0
2016-Jan-09 03:28N 35°41' E 139°59'0 0.0
2016-Jan-09 02:28N 35°41' E 139°59'0 0.0
2016-Jan-09 01:16N 35°41' E 139°59'0 0.0
2016-Jan-09 00:28N 35°41' E 139°59'0 0.0
2016-Jan-08 23:22N 35°41' E 139°59'0 0.0
2016-Jan-08 22:28N 35°41' E 139°59'0 0.0
2016-Jan-08 21:28N 35°41' E 139°59'0 0.0
2016-Jan-08 20:28N 35°41' E 139°59'0 0.0
2016-Jan-08 19:28N 35°41' E 139°59'0 0.0
2016-Jan-08 18:22N 35°41' E 139°59'0 0.0
2016-Jan-08 17:16N 35°41' E 139°59'0 0.0
2016-Jan-08 16:28N 35°41' E 139°59'0 0.0
2016-Jan-08 15:28N 35°41' E 139°59'0 0.0
2016-Jan-08 14:28N 35°41' E 139°59'0 0.0
2016-Jan-08 13:28N 35°41' E 139°59'0 0.0
2016-Jan-08 12:28N 35°41' E 139°59'0 0.0
2016-Jan-08 11:28N 35°41' E 139°59'0 0.0
2016-Jan-08 10:22N 35°41' E 139°59'0 0.0
2016-Jan-08 09:10N 35°41' E 139°59'0 0.0
2016-Jan-08 08:28N 35°41' E 139°59'0 0.0
2016-Jan-08 07:28N 35°41' E 139°59'0 0.0
2016-Jan-08 06:22N 35°41' E 139°59'0 0.0
2016-Jan-08 05:16N 35°41' E 139°59'0 0.0
2016-Jan-08 04:28N 35°41' E 139°59'0 0.0
2016-Jan-08 03:31N 35°41' E 139°59'0 0.0
2016-Jan-08 02:28N 35°41' E 139°59'0 0.0
2016-Jan-08 01:28N 35°41' E 139°59'0 0.0
2016-Jan-08 00:28N 35°41' E 139°59'0 0.0
2016-Jan-07 23:28N 35°41' E 139°59'0 0.0
2016-Jan-07 22:28N 35°41' E 139°59'0 0.0
2016-Jan-07 21:28N 35°41' E 139°59'0 0.0
2016-Jan-07 20:28N 35°41' E 139°59'0 0.0
2016-Jan-07 19:22N 35°41' E 139°59'0 0.0
2016-Jan-07 18:28N 35°41' E 139°59'0 0.0
2016-Jan-07 17:28N 35°41' E 139°59'0 0.0
2016-Jan-07 16:22N 35°41' E 139°59'0 0.0
2016-Jan-07 15:22N 35°41' E 139°59'0 0.0
2016-Jan-07 14:22N 35°41' E 139°59'0 0.0
2016-Jan-07 13:22N 35°41' E 139°59'0 0.0
2016-Jan-07 12:28N 35°41' E 139°59'0 0.0
2016-Jan-07 11:28N 35°41' E 139°59'0 0.0
2016-Jan-07 10:28N 35°41' E 139°59'0 0.0
2016-Jan-07 09:22N 35°41' E 139°59'0 0.0
2016-Jan-07 08:28N 35°41' E 139°59'0 0.0
2016-Jan-07 07:28N 35°41' E 139°59'0 0.0
2016-Jan-07 06:28N 35°41' E 139°59'0 0.2
2016-Jan-07 05:29N 35°41' E 139°58'0 0.0
2016-Jan-07 04:29N 35°41' E 139°58'0 0.0
2016-Jan-07 03:29N 35°41' E 139°58'0 0.0
2016-Jan-07 02:29N 35°41' E 139°58'0 0.0
2016-Jan-07 01:23N 35°41' E 139°58'0 0.0
2016-Jan-07 00:29N 35°41' E 139°58'0 0.0
2016-Jan-06 23:29N 35°41' E 139°58'0 0.0
2016-Jan-06 22:29N 35°41' E 139°58'0 0.0
2016-Jan-06 21:29N 35°41' E 139°58'4 4.8
2016-Jan-06 20:33N 35°36' E 139°58'0 0.3
2016-Jan-06 19:24N 35°36' E 139°58'0 0.0
2016-Jan-06 18:18N 35°36' E 139°58'0 0.0
2016-Jan-06 17:30N 35°36' E 139°58'0 0.0
2016-Jan-06 16:30N 35°36' E 139°58'0 0.0
2016-Jan-06 15:18N 35°36' E 139°58'0 0.0
2016-Jan-06 14:12N 35°36' E 139°58'0 0.0
2016-Jan-06 13:30N 35°36' E 139°58'0 0.0
2016-Jan-06 12:30N 35°36' E 139°58'0 0.0
2016-Jan-06 11:30N 35°36' E 139°58'0 0.0
2016-Jan-06 10:18N 35°36' E 139°58'0 0.1
2016-Jan-06 09:24N 35°36' E 139°58'0 0.0
2016-Jan-06 08:30N 35°36' E 139°58'0 0.0
2016-Jan-06 05:30N 35°36' E 139°58'0 0.0
2016-Jan-06 04:18N 35°36' E 139°58'0 0.0
2016-Jan-06 03:30N 35°36' E 139°58'0 0.0
2016-Jan-06 02:30N 35°36' E 139°58'0 0.0
2016-Jan-06 01:30N 35°36' E 139°58'0 0.0
2016-Jan-06 00:24N 35°36' E 139°58'0 0.0
2016-Jan-05 23:18N 35°36' E 139°58'0 0.0
2016-Jan-05 22:30N 35°36' E 139°58'0 0.0
2016-Jan-05 21:30N 35°36' E 139°58'0 0.0
2016-Jan-05 20:18N 35°36' E 139°58'0 0.0
2016-Jan-05 19:30N 35°36' E 139°58'0 0.0
2016-Jan-05 18:30N 35°36' E 139°58'0 0.0
2016-Jan-05 17:30N 35°36' E 139°58'0 0.0
2016-Jan-05 16:30N 35°36' E 139°58'0 0.0
2016-Jan-05 15:30N 35°36' E 139°58'0 0.0
2016-Jan-05 14:30N 35°36' E 139°58'0 0.0
2016-Jan-05 13:30N 35°36' E 139°58'0 0.0
2016-Jan-05 12:30N 35°36' E 139°58'0 0.0
2016-Jan-05 11:30N 35°36' E 139°58'0 0.0
2016-Jan-05 10:30N 35°36' E 139°58'0 0.0
2016-Jan-05 09:30N 35°36' E 139°58'0 0.0
2016-Jan-05 08:30N 35°36' E 139°58'0 0.0
2016-Jan-05 07:30N 35°36' E 139°58'0 0.0
2016-Jan-05 06:18N 35°36' E 139°58'0 0.1
2016-Jan-05 05:30N 35°36' E 139°58'0 0.1
2016-Jan-05 04:30N 35°36' E 139°58'0 0.0
2016-Jan-05 03:30N 35°36' E 139°58'0 0.0
2016-Jan-05 02:30N 35°36' E 139°58'0 0.0
2016-Jan-05 01:18N 35°36' E 139°58'0 0.0
2016-Jan-05 00:30N 35°36' E 139°58'0 0.0
2016-Jan-04 23:24N 35°36' E 139°58'0 0.0
2016-Jan-04 22:30N 35°36' E 139°58'0 0.0
2016-Jan-04 21:30N 35°36' E 139°58'0 0.0
2016-Jan-04 20:24N 35°36' E 139°58'0 0.0
2016-Jan-04 19:24N 35°36' E 139°58'0 0.0
2016-Jan-04 18:30N 35°36' E 139°58'0 0.0
2016-Jan-04 17:30N 35°36' E 139°58'0 0.0
2016-Jan-04 16:30N 35°36' E 139°58'0 0.0
2016-Jan-04 15:24N 35°36' E 139°58'0 0.0
2016-Jan-04 14:24N 35°36' E 139°58'0 0.0
2016-Jan-04 13:24N 35°36' E 139°58'0 0.1
2016-Jan-04 12:30N 35°36' E 139°58'7 7.7
2016-Jan-04 11:34N 35°30' E 139°54'10 9.8
2016-Jan-04 10:34N 35°22' E 139°45'9 8.8
2016-Jan-04 09:33N 35°14' E 139°47'  

Dump ship's entire track history